sensor_id;sensor_type;location;lat;lon;timestamp;P1;durP1;ratioP1;P2;durP2;ratioP2
24305;SDS011;12423;48.768;8.850;2023-02-28T00:00:53;3.45;;;1.55;;
24305;SDS011;12423;48.768;8.850;2023-02-28T00:02:54;3.10;;;1.58;;
24305;SDS011;12423;48.768;8.850;2023-02-28T00:04:55;3.33;;;1.42;;
24305;SDS011;12423;48.768;8.850;2023-02-28T00:07:01;5.63;;;1.77;;
24305;SDS011;12423;48.768;8.850;2023-02-28T00:09:02;4.80;;;1.73;;
24305;SDS011;12423;48.768;8.850;2023-02-28T00:11:04;2.60;;;1.60;;
24305;SDS011;12423;48.768;8.850;2023-02-28T00:13:06;6.35;;;1.90;;
24305;SDS011;12423;48.768;8.850;2023-02-28T00:15:08;4.57;;;1.90;;
24305;SDS011;12423;48.768;8.850;2023-02-28T00:17:10;2.63;;;1.67;;
24305;SDS011;12423;48.768;8.850;2023-02-28T00:19:11;4.88;;;2.05;;
24305;SDS011;12423;48.768;8.850;2023-02-28T00:21:14;3.10;;;1.48;;
24305;SDS011;12423;48.768;8.850;2023-02-28T00:23:16;3.00;;;1.15;;
24305;SDS011;12423;48.768;8.850;2023-02-28T00:25:18;2.13;;;1.00;;
24305;SDS011;12423;48.768;8.850;2023-02-28T00:27:21;2.90;;;1.45;;
24305;SDS011;12423;48.768;8.850;2023-02-28T00:29:22;2.40;;;1.00;;
24305;SDS011;12423;48.768;8.850;2023-02-28T00:31:23;3.33;;;1.55;;
24305;SDS011;12423;48.768;8.850;2023-02-28T00:33:24;3.85;;;1.77;;
24305;SDS011;12423;48.768;8.850;2023-02-28T00:35:25;2.83;;;1.65;;
24305;SDS011;12423;48.768;8.850;2023-02-28T00:37:26;1.98;;;1.08;;
24305;SDS011;12423;48.768;8.850;2023-02-28T00:39:27;3.03;;;1.55;;
24305;SDS011;12423;48.768;8.850;2023-02-28T00:41:30;4.43;;;1.83;;
24305;SDS011;12423;48.768;8.850;2023-02-28T00:43:32;3.10;;;1.58;;
24305;SDS011;12423;48.768;8.850;2023-02-28T00:45:38;3.85;;;1.67;;
24305;SDS011;12423;48.768;8.850;2023-02-28T00:47:39;5.05;;;1.52;;
24305;SDS011;12423;48.768;8.850;2023-02-28T00:49:40;3.22;;;1.65;;
24305;SDS011;12423;48.768;8.850;2023-02-28T00:51:41;3.28;;;1.60;;
24305;SDS011;12423;48.768;8.850;2023-02-28T00:53:41;4.25;;;1.45;;
24305;SDS011;12423;48.768;8.850;2023-02-28T00:55:42;2.75;;;1.30;;
24305;SDS011;12423;48.768;8.850;2023-02-28T00:57:45;4.47;;;1.70;;
24305;SDS011;12423;48.768;8.850;2023-02-28T00:59:46;3.92;;;1.48;;
24305;SDS011;12423;48.768;8.850;2023-02-28T01:01:47;2.67;;;1.60;;
24305;SDS011;12423;48.768;8.850;2023-02-28T01:03:48;3.22;;;1.80;;
24305;SDS011;12423;48.768;8.850;2023-02-28T01:05:48;5.20;;;1.95;;
24305;SDS011;12423;48.768;8.850;2023-02-28T01:07:51;2.33;;;1.40;;
24305;SDS011;12423;48.768;8.850;2023-02-28T01:09:52;3.33;;;1.60;;
24305;SDS011;12423;48.768;8.850;2023-02-28T01:11:53;2.67;;;1.50;;
24305;SDS011;12423;48.768;8.850;2023-02-28T01:13:54;3.65;;;1.70;;
24305;SDS011;12423;48.768;8.850;2023-02-28T01:15:55;3.50;;;1.88;;
24305;SDS011;12423;48.768;8.850;2023-02-28T01:17:57;4.00;;;1.85;;
24305;SDS011;12423;48.768;8.850;2023-02-28T01:19:58;3.90;;;1.83;;
24305;SDS011;12423;48.768;8.850;2023-02-28T01:22:03;6.22;;;1.70;;
24305;SDS011;12423;48.768;8.850;2023-02-28T01:24:05;4.60;;;1.60;;
24305;SDS011;12423;48.768;8.850;2023-02-28T01:26:13;2.55;;;1.75;;
24305;SDS011;12423;48.768;8.850;2023-02-28T01:28:19;4.35;;;2.00;;
24305;SDS011;12423;48.768;8.850;2023-02-28T01:30:20;3.83;;;1.83;;
24305;SDS011;12423;48.768;8.850;2023-02-28T01:32:21;3.00;;;1.75;;
24305;SDS011;12423;48.768;8.850;2023-02-28T01:34:22;5.32;;;2.03;;
24305;SDS011;12423;48.768;8.850;2023-02-28T01:36:23;4.50;;;1.73;;
24305;SDS011;12423;48.768;8.850;2023-02-28T01:38:25;4.05;;;1.73;;
24305;SDS011;12423;48.768;8.850;2023-02-28T01:40:28;4.47;;;1.60;;
24305;SDS011;12423;48.768;8.850;2023-02-28T01:42:29;3.38;;;1.70;;
24305;SDS011;12423;48.768;8.850;2023-02-28T01:47:22;4.28;;;1.92;;
24305;SDS011;12423;48.768;8.850;2023-02-28T01:49:26;5.10;;;2.10;;
24305;SDS011;12423;48.768;8.850;2023-02-28T01:53:40;3.92;;;1.98;;
24305;SDS011;12423;48.768;8.850;2023-02-28T01:55:45;3.75;;;2.08;;
24305;SDS011;12423;48.768;8.850;2023-02-28T01:57:50;3.67;;;2.15;;
24305;SDS011;12423;48.768;8.850;2023-02-28T01:59:56;4.03;;;1.95;;
24305;SDS011;12423;48.768;8.850;2023-02-28T02:02:13;3.42;;;1.55;;
24305;SDS011;12423;48.768;8.850;2023-02-28T02:04:16;5.13;;;1.98;;
24305;SDS011;12423;48.768;8.850;2023-02-28T02:06:18;2.85;;;1.75;;
24305;SDS011;12423;48.768;8.850;2023-02-28T02:08:20;5.05;;;2.05;;
24305;SDS011;12423;48.768;8.850;2023-02-28T02:10:31;3.33;;;1.80;;
24305;SDS011;12423;48.768;8.850;2023-02-28T02:15:11;3.70;;;2.05;;
24305;SDS011;12423;48.768;8.850;2023-02-28T02:19:33;4.30;;;2.38;;
24305;SDS011;12423;48.768;8.850;2023-02-28T02:27:03;13.45;;;2.47;;
24305;SDS011;12423;48.768;8.850;2023-02-28T02:29:21;3.05;;;1.80;;
24305;SDS011;12423;48.768;8.850;2023-02-28T02:31:53;4.07;;;2.40;;
24305;SDS011;12423;48.768;8.850;2023-02-28T02:36:18;5.20;;;1.88;;
24305;SDS011;12423;48.768;8.850;2023-02-28T02:43:17;7.15;;;2.47;;
24305;SDS011;12423;48.768;8.850;2023-02-28T02:45:34;6.93;;;2.60;;
24305;SDS011;12423;48.768;8.850;2023-02-28T02:47:40;5.07;;;2.20;;
24305;SDS011;12423;48.768;8.850;2023-02-28T02:49:45;5.45;;;2.42;;
24305;SDS011;12423;48.768;8.850;2023-02-28T02:51:51;3.95;;;2.28;;
24305;SDS011;12423;48.768;8.850;2023-02-28T02:53:57;4.63;;;1.98;;
24305;SDS011;12423;48.768;8.850;2023-02-28T02:56:07;6.32;;;2.75;;
24305;SDS011;12423;48.768;8.850;2023-02-28T02:58:10;5.57;;;2.10;;
24305;SDS011;12423;48.768;8.850;2023-02-28T03:00:15;3.28;;;1.77;;
24305;SDS011;12423;48.768;8.850;2023-02-28T03:02:21;3.85;;;2.10;;
24305;SDS011;12423;48.768;8.850;2023-02-28T03:04:24;4.63;;;1.60;;
24305;SDS011;12423;48.768;8.850;2023-02-28T03:06:28;8.57;;;2.42;;
24305;SDS011;12423;48.768;8.850;2023-02-28T03:08:31;3.75;;;2.33;;
24305;SDS011;12423;48.768;8.850;2023-02-28T03:10:39;5.13;;;2.33;;
24305;SDS011;12423;48.768;8.850;2023-02-28T03:12:49;6.70;;;2.75;;
24305;SDS011;12423;48.768;8.850;2023-02-28T03:20:01;5.22;;;2.17;;
24305;SDS011;12423;48.768;8.850;2023-02-28T03:24:32;4.07;;;1.88;;
24305;SDS011;12423;48.768;8.850;2023-02-28T03:26:37;5.93;;;2.60;;
24305;SDS011;12423;48.768;8.850;2023-02-28T03:28:45;4.85;;;2.35;;
24305;SDS011;12423;48.768;8.850;2023-02-28T03:31:02;5.57;;;2.40;;
24305;SDS011;12423;48.768;8.850;2023-02-28T03:33:39;4.22;;;2.22;;
24305;SDS011;12423;48.768;8.850;2023-02-28T03:35:49;3.78;;;2.30;;
24305;SDS011;12423;48.768;8.850;2023-02-28T03:38:03;5.85;;;2.35;;
24305;SDS011;12423;48.768;8.850;2023-02-28T03:40:14;5.05;;;2.33;;
24305;SDS011;12423;48.768;8.850;2023-02-28T03:42:19;7.97;;;2.95;;
24305;SDS011;12423;48.768;8.850;2023-02-28T03:44:24;9.43;;;3.08;;
24305;SDS011;12423;48.768;8.850;2023-02-28T03:46:31;5.95;;;3.13;;
24305;SDS011;12423;48.768;8.850;2023-02-28T03:48:38;5.93;;;3.00;;
24305;SDS011;12423;48.768;8.850;2023-02-28T03:50:44;4.75;;;2.60;;
24305;SDS011;12423;48.768;8.850;2023-02-28T03:55:20;4.18;;;2.30;;
24305;SDS011;12423;48.768;8.850;2023-02-28T03:57:23;6.75;;;3.13;;
24305;SDS011;12423;48.768;8.850;2023-02-28T03:59:34;7.22;;;3.13;;
24305;SDS011;12423;48.768;8.850;2023-02-28T04:01:47;4.45;;;2.50;;
24305;SDS011;12423;48.768;8.850;2023-02-28T04:03:49;6.43;;;3.55;;
24305;SDS011;12423;48.768;8.850;2023-02-28T04:05:52;6.35;;;2.97;;
24305;SDS011;12423;48.768;8.850;2023-02-28T04:08:02;4.60;;;2.65;;
24305;SDS011;12423;48.768;8.850;2023-02-28T04:10:04;4.63;;;2.58;;
24305;SDS011;12423;48.768;8.850;2023-02-28T04:12:06;6.25;;;2.95;;
24305;SDS011;12423;48.768;8.850;2023-02-28T04:14:07;5.65;;;3.17;;
24305;SDS011;12423;48.768;8.850;2023-02-28T04:16:10;7.05;;;3.38;;
24305;SDS011;12423;48.768;8.850;2023-02-28T04:18:13;5.78;;;3.03;;
24305;SDS011;12423;48.768;8.850;2023-02-28T04:20:14;7.15;;;3.97;;
24305;SDS011;12423;48.768;8.850;2023-02-28T04:22:14;9.00;;;3.58;;
24305;SDS011;12423;48.768;8.850;2023-02-28T04:24:18;5.03;;;2.83;;
24305;SDS011;12423;48.768;8.850;2023-02-28T04:26:21;8.30;;;3.33;;
24305;SDS011;12423;48.768;8.850;2023-02-28T04:28:22;6.35;;;3.10;;
24305;SDS011;12423;48.768;8.850;2023-02-28T04:30:23;7.00;;;3.65;;
24305;SDS011;12423;48.768;8.850;2023-02-28T04:32:24;7.30;;;3.30;;
24305;SDS011;12423;48.768;8.850;2023-02-28T04:34:25;6.95;;;3.05;;
24305;SDS011;12423;48.768;8.850;2023-02-28T04:36:27;6.00;;;3.47;;
24305;SDS011;12423;48.768;8.850;2023-02-28T04:38:29;5.47;;;3.05;;
24305;SDS011;12423;48.768;8.850;2023-02-28T04:40:35;5.03;;;3.15;;
24305;SDS011;12423;48.768;8.850;2023-02-28T04:42:36;5.63;;;2.90;;
24305;SDS011;12423;48.768;8.850;2023-02-28T04:44:37;5.95;;;3.10;;
24305;SDS011;12423;48.768;8.850;2023-02-28T04:46:38;5.57;;;2.75;;
24305;SDS011;12423;48.768;8.850;2023-02-28T04:48:39;5.32;;;3.15;;
24305;SDS011;12423;48.768;8.850;2023-02-28T04:50:40;6.32;;;3.05;;
24305;SDS011;12423;48.768;8.850;2023-02-28T04:52:41;5.13;;;2.92;;
24305;SDS011;12423;48.768;8.850;2023-02-28T04:54:42;7.60;;;3.35;;
24305;SDS011;12423;48.768;8.850;2023-02-28T04:56:43;8.52;;;3.10;;
24305;SDS011;12423;48.768;8.850;2023-02-28T04:58:44;4.95;;;2.97;;
24305;SDS011;12423;48.768;8.850;2023-02-28T05:00:45;6.20;;;2.90;;
24305;SDS011;12423;48.768;8.850;2023-02-28T05:02:46;9.10;;;4.07;;
24305;SDS011;12423;48.768;8.850;2023-02-28T05:04:47;5.97;;;3.15;;
24305;SDS011;12423;48.768;8.850;2023-02-28T05:06:48;9.10;;;4.43;;
24305;SDS011;12423;48.768;8.850;2023-02-28T05:08:49;8.50;;;3.97;;
24305;SDS011;12423;48.768;8.850;2023-02-28T05:10:50;9.90;;;3.70;;
24305;SDS011;12423;48.768;8.850;2023-02-28T05:12:51;9.50;;;4.53;;
24305;SDS011;12423;48.768;8.850;2023-02-28T05:14:52;10.05;;;3.90;;
24305;SDS011;12423;48.768;8.850;2023-02-28T05:16:53;8.30;;;4.53;;
24305;SDS011;12423;48.768;8.850;2023-02-28T05:18:54;7.50;;;3.42;;
24305;SDS011;12423;48.768;8.850;2023-02-28T05:20:55;7.15;;;3.97;;
24305;SDS011;12423;48.768;8.850;2023-02-28T05:22:56;6.78;;;3.83;;
24305;SDS011;12423;48.768;8.850;2023-02-28T05:24:58;7.70;;;3.60;;
24305;SDS011;12423;48.768;8.850;2023-02-28T05:26:59;6.70;;;4.00;;
24305;SDS011;12423;48.768;8.850;2023-02-28T05:29:00;6.90;;;3.78;;
24305;SDS011;12423;48.768;8.850;2023-02-28T05:31:01;7.70;;;3.83;;
24305;SDS011;12423;48.768;8.850;2023-02-28T05:33:02;6.57;;;4.05;;
24305;SDS011;12423;48.768;8.850;2023-02-28T05:35:03;7.75;;;3.60;;
24305;SDS011;12423;48.768;8.850;2023-02-28T05:37:05;5.18;;;2.85;;
24305;SDS011;12423;48.768;8.850;2023-02-28T05:39:07;7.00;;;3.63;;
24305;SDS011;12423;48.768;8.850;2023-02-28T05:41:12;7.85;;;2.95;;
24305;SDS011;12423;48.768;8.850;2023-02-28T05:43:13;7.03;;;3.45;;
24305;SDS011;12423;48.768;8.850;2023-02-28T05:45:14;6.95;;;3.40;;
24305;SDS011;12423;48.768;8.850;2023-02-28T05:47:15;6.53;;;3.50;;
24305;SDS011;12423;48.768;8.850;2023-02-28T05:49:17;6.95;;;3.58;;
24305;SDS011;12423;48.768;8.850;2023-02-28T05:51:18;5.80;;;3.10;;
24305;SDS011;12423;48.768;8.850;2023-02-28T05:53:19;7.70;;;3.63;;
24305;SDS011;12423;48.768;8.850;2023-02-28T05:55:20;7.03;;;3.47;;
24305;SDS011;12423;48.768;8.850;2023-02-28T05:57:21;5.85;;;3.20;;
24305;SDS011;12423;48.768;8.850;2023-02-28T05:59:22;8.65;;;3.83;;
24305;SDS011;12423;48.768;8.850;2023-02-28T06:01:24;8.05;;;3.83;;
24305;SDS011;12423;48.768;8.850;2023-02-28T06:03:32;7.80;;;3.70;;
24305;SDS011;12423;48.768;8.850;2023-02-28T06:05:33;13.15;;;6.05;;
24305;SDS011;12423;48.768;8.850;2023-02-28T06:07:34;9.55;;;4.78;;
24305;SDS011;12423;48.768;8.850;2023-02-28T06:09:35;10.57;;;4.07;;
24305;SDS011;12423;48.768;8.850;2023-02-28T06:11:37;6.80;;;3.97;;
24305;SDS011;12423;48.768;8.850;2023-02-28T06:13:38;8.95;;;4.38;;
24305;SDS011;12423;48.768;8.850;2023-02-28T06:15:39;11.10;;;3.80;;
24305;SDS011;12423;48.768;8.850;2023-02-28T06:17:40;6.78;;;3.60;;
24305;SDS011;12423;48.768;8.850;2023-02-28T06:19:42;6.75;;;4.07;;
24305;SDS011;12423;48.768;8.850;2023-02-28T06:21:43;8.32;;;3.80;;
24305;SDS011;12423;48.768;8.850;2023-02-28T06:23:44;10.43;;;4.88;;
24305;SDS011;12423;48.768;8.850;2023-02-28T06:25:45;9.45;;;4.82;;
24305;SDS011;12423;48.768;8.850;2023-02-28T06:27:47;6.32;;;3.45;;
24305;SDS011;12423;48.768;8.850;2023-02-28T06:29:48;7.47;;;4.53;;
24305;SDS011;12423;48.768;8.850;2023-02-28T06:31:49;7.63;;;4.22;;
24305;SDS011;12423;48.768;8.850;2023-02-28T06:33:50;10.57;;;4.30;;
24305;SDS011;12423;48.768;8.850;2023-02-28T06:35:52;7.57;;;3.53;;
24305;SDS011;12423;48.768;8.850;2023-02-28T06:37:53;10.90;;;4.07;;
24305;SDS011;12423;48.768;8.850;2023-02-28T06:39:54;6.88;;;3.90;;
24305;SDS011;12423;48.768;8.850;2023-02-28T06:41:56;12.82;;;4.22;;
24305;SDS011;12423;48.768;8.850;2023-02-28T06:43:57;7.93;;;3.95;;
24305;SDS011;12423;48.768;8.850;2023-02-28T06:45:59;7.20;;;3.63;;
24305;SDS011;12423;48.768;8.850;2023-02-28T06:48:01;5.22;;;2.85;;
24305;SDS011;12423;48.768;8.850;2023-02-28T06:50:02;5.78;;;3.92;;
24305;SDS011;12423;48.768;8.850;2023-02-28T06:52:04;5.97;;;3.30;;
24305;SDS011;12423;48.768;8.850;2023-02-28T06:54:05;7.38;;;3.40;;
24305;SDS011;12423;48.768;8.850;2023-02-28T06:56:10;8.43;;;4.10;;
24305;SDS011;12423;48.768;8.850;2023-02-28T06:58:13;7.35;;;4.00;;
24305;SDS011;12423;48.768;8.850;2023-02-28T07:00:19;7.68;;;4.65;;
24305;SDS011;12423;48.768;8.850;2023-02-28T07:02:20;8.13;;;4.13;;
24305;SDS011;12423;48.768;8.850;2023-02-28T07:04:21;10.93;;;4.20;;
24305;SDS011;12423;48.768;8.850;2023-02-28T07:06:22;8.90;;;4.38;;
24305;SDS011;12423;48.768;8.850;2023-02-28T07:08:24;11.48;;;4.90;;
24305;SDS011;12423;48.768;8.850;2023-02-28T07:10:25;8.38;;;4.00;;
24305;SDS011;12423;48.768;8.850;2023-02-28T07:12:26;10.57;;;4.03;;
24305;SDS011;12423;48.768;8.850;2023-02-28T07:14:27;10.18;;;4.53;;
24305;SDS011;12423;48.768;8.850;2023-02-28T07:16:28;8.77;;;4.72;;
24305;SDS011;12423;48.768;8.850;2023-02-28T07:18:29;11.23;;;5.40;;
24305;SDS011;12423;48.768;8.850;2023-02-28T07:20:31;10.52;;;4.80;;
24305;SDS011;12423;48.768;8.850;2023-02-28T07:22:32;7.90;;;4.25;;
24305;SDS011;12423;48.768;8.850;2023-02-28T07:24:33;10.77;;;5.57;;
24305;SDS011;12423;48.768;8.850;2023-02-28T07:26:34;12.68;;;5.25;;
24305;SDS011;12423;48.768;8.850;2023-02-28T07:28:35;7.50;;;4.20;;
24305;SDS011;12423;48.768;8.850;2023-02-28T07:30:36;8.82;;;4.28;;
24305;SDS011;12423;48.768;8.850;2023-02-28T07:32:37;8.73;;;4.72;;
24305;SDS011;12423;48.768;8.850;2023-02-28T07:34:38;8.57;;;4.93;;
24305;SDS011;12423;48.768;8.850;2023-02-28T07:36:39;7.72;;;4.15;;
24305;SDS011;12423;48.768;8.850;2023-02-28T07:38:41;7.10;;;4.45;;
24305;SDS011;12423;48.768;8.850;2023-02-28T07:40:43;8.90;;;4.18;;
24305;SDS011;12423;48.768;8.850;2023-02-28T07:42:44;10.40;;;4.18;;
24305;SDS011;12423;48.768;8.850;2023-02-28T07:44:45;8.27;;;4.38;;
24305;SDS011;12423;48.768;8.850;2023-02-28T07:46:46;9.32;;;4.35;;
24305;SDS011;12423;48.768;8.850;2023-02-28T07:48:47;8.13;;;4.60;;
24305;SDS011;12423;48.768;8.850;2023-02-28T07:50:55;10.88;;;4.07;;
24305;SDS011;12423;48.768;8.850;2023-02-28T07:53:00;6.47;;;3.30;;
24305;SDS011;12423;48.768;8.850;2023-02-28T07:55:01;10.18;;;4.78;;
24305;SDS011;12423;48.768;8.850;2023-02-28T07:57:02;7.78;;;3.83;;
24305;SDS011;12423;48.768;8.850;2023-02-28T07:59:03;9.60;;;4.88;;
24305;SDS011;12423;48.768;8.850;2023-02-28T08:01:05;9.85;;;4.45;;
24305;SDS011;12423;48.768;8.850;2023-02-28T08:03:10;6.13;;;3.58;;
24305;SDS011;12423;48.768;8.850;2023-02-28T08:05:12;8.98;;;4.22;;
24305;SDS011;12423;48.768;8.850;2023-02-28T08:07:13;9.13;;;4.53;;
24305;SDS011;12423;48.768;8.850;2023-02-28T08:09:15;10.02;;;4.68;;
24305;SDS011;12423;48.768;8.850;2023-02-28T08:11:16;9.35;;;5.00;;
24305;SDS011;12423;48.768;8.850;2023-02-28T08:13:18;9.88;;;4.60;;
24305;SDS011;12423;48.768;8.850;2023-02-28T08:15:19;9.43;;;4.70;;
24305;SDS011;12423;48.768;8.850;2023-02-28T08:17:20;15.07;;;5.05;;
24305;SDS011;12423;48.768;8.850;2023-02-28T08:19:21;6.95;;;3.88;;
24305;SDS011;12423;48.768;8.850;2023-02-28T08:21:22;7.40;;;4.00;;
24305;SDS011;12423;48.768;8.850;2023-02-28T08:23:23;7.72;;;4.72;;
24305;SDS011;12423;48.768;8.850;2023-02-28T08:25:24;11.63;;;4.90;;
24305;SDS011;12423;48.768;8.850;2023-02-28T08:27:25;10.20;;;5.20;;
24305;SDS011;12423;48.768;8.850;2023-02-28T08:29:26;8.93;;;4.82;;
24305;SDS011;12423;48.768;8.850;2023-02-28T08:31:26;9.88;;;4.55;;
24305;SDS011;12423;48.768;8.850;2023-02-28T08:33:28;11.07;;;5.55;;
24305;SDS011;12423;48.768;8.850;2023-02-28T08:35:29;9.77;;;5.10;;
24305;SDS011;12423;48.768;8.850;2023-02-28T08:37:30;11.57;;;6.13;;
24305;SDS011;12423;48.768;8.850;2023-02-28T08:39:33;11.50;;;5.80;;
24305;SDS011;12423;48.768;8.850;2023-02-28T08:41:35;7.93;;;4.88;;
24305;SDS011;12423;48.768;8.850;2023-02-28T08:43:36;9.68;;;4.55;;
24305;SDS011;12423;48.768;8.850;2023-02-28T08:45:37;7.55;;;4.38;;
24305;SDS011;12423;48.768;8.850;2023-02-28T08:47:38;9.23;;;4.63;;
24305;SDS011;12423;48.768;8.850;2023-02-28T08:49:39;11.15;;;4.90;;
24305;SDS011;12423;48.768;8.850;2023-02-28T08:51:40;10.60;;;4.32;;
24305;SDS011;12423;48.768;8.850;2023-02-28T08:53:41;10.63;;;5.13;;
24305;SDS011;12423;48.768;8.850;2023-02-28T08:55:42;10.88;;;5.05;;
24305;SDS011;12423;48.768;8.850;2023-02-28T08:57:43;7.53;;;4.05;;
24305;SDS011;12423;48.768;8.850;2023-02-28T08:59:44;22.75;;;6.93;;
24305;SDS011;12423;48.768;8.850;2023-02-28T09:01:45;19.75;;;7.70;;
24305;SDS011;12423;48.768;8.850;2023-02-28T09:03:46;12.73;;;6.90;;
24305;SDS011;12423;48.768;8.850;2023-02-28T09:05:58;10.90;;;5.60;;
24305;SDS011;12423;48.768;8.850;2023-02-28T09:08:00;9.18;;;4.60;;
24305;SDS011;12423;48.768;8.850;2023-02-28T09:10:01;7.55;;;4.07;;
24305;SDS011;12423;48.768;8.850;2023-02-28T09:12:02;10.65;;;4.72;;
24305;SDS011;12423;48.768;8.850;2023-02-28T09:14:04;9.52;;;4.80;;
24305;SDS011;12423;48.768;8.850;2023-02-28T09:16:06;9.10;;;4.55;;
24305;SDS011;12423;48.768;8.850;2023-02-28T09:18:08;9.20;;;4.57;;
24305;SDS011;12423;48.768;8.850;2023-02-28T09:20:09;9.30;;;5.30;;
24305;SDS011;12423;48.768;8.850;2023-02-28T09:22:11;14.60;;;5.78;;
24305;SDS011;12423;48.768;8.850;2023-02-28T09:24:12;15.05;;;7.07;;
24305;SDS011;12423;48.768;8.850;2023-02-28T09:26:15;10.88;;;5.68;;
24305;SDS011;12423;48.768;8.850;2023-02-28T09:28:17;11.27;;;5.60;;
24305;SDS011;12423;48.768;8.850;2023-02-28T09:30:19;21.23;;;5.47;;
24305;SDS011;12423;48.768;8.850;2023-02-28T09:32:20;11.90;;;5.68;;
24305;SDS011;12423;48.768;8.850;2023-02-28T09:34:21;10.20;;;5.57;;
24305;SDS011;12423;48.768;8.850;2023-02-28T09:36:22;13.40;;;5.38;;
24305;SDS011;12423;48.768;8.850;2023-02-28T09:38:24;8.38;;;4.70;;
24305;SDS011;12423;48.768;8.850;2023-02-28T09:40:25;12.70;;;6.15;;
24305;SDS011;12423;48.768;8.850;2023-02-28T09:42:33;14.55;;;6.82;;
24305;SDS011;12423;48.768;8.850;2023-02-28T09:44:38;17.02;;;6.43;;
24305;SDS011;12423;48.768;8.850;2023-02-28T09:46:43;10.98;;;5.72;;
24305;SDS011;12423;48.768;8.850;2023-02-28T09:48:48;9.02;;;5.82;;
24305;SDS011;12423;48.768;8.850;2023-02-28T09:50:52;10.05;;;5.80;;
24305;SDS011;12423;48.768;8.850;2023-02-28T09:52:59;14.88;;;6.15;;
24305;SDS011;12423;48.768;8.850;2023-02-28T09:55:18;12.63;;;6.93;;
24305;SDS011;12423;48.768;8.850;2023-02-28T09:57:32;10.43;;;5.25;;
24305;SDS011;12423;48.768;8.850;2023-02-28T10:06:39;11.50;;;5.88;;
24305;SDS011;12423;48.768;8.850;2023-02-28T10:08:50;12.32;;;6.72;;
24305;SDS011;12423;48.768;8.850;2023-02-28T10:11:00;9.43;;;5.60;;
24305;SDS011;12423;48.768;8.850;2023-02-28T10:13:06;10.63;;;4.88;;
24305;SDS011;12423;48.768;8.850;2023-02-28T10:15:17;10.90;;;6.70;;
24305;SDS011;12423;48.768;8.850;2023-02-28T10:17:22;10.30;;;5.85;;
24305;SDS011;12423;48.768;8.850;2023-02-28T10:23:39;12.02;;;6.18;;
24305;SDS011;12423;48.768;8.850;2023-02-28T10:25:40;11.93;;;6.75;;
24305;SDS011;12423;48.768;8.850;2023-02-28T10:27:49;9.07;;;4.88;;
24305;SDS011;12423;48.768;8.850;2023-02-28T10:29:55;14.45;;;6.28;;
24305;SDS011;12423;48.768;8.850;2023-02-28T10:31:58;14.82;;;7.88;;
24305;SDS011;12423;48.768;8.850;2023-02-28T10:34:02;14.38;;;8.05;;
24305;SDS011;12423;48.768;8.850;2023-02-28T10:36:04;12.13;;;6.55;;
24305;SDS011;12423;48.768;8.850;2023-02-28T10:38:14;12.50;;;7.18;;
24305;SDS011;12423;48.768;8.850;2023-02-28T10:42:27;9.32;;;5.80;;
24305;SDS011;12423;48.768;8.850;2023-02-28T10:44:30;9.73;;;5.50;;
24305;SDS011;12423;48.768;8.850;2023-02-28T10:46:31;11.23;;;5.53;;
24305;SDS011;12423;48.768;8.850;2023-02-28T10:48:36;13.70;;;7.20;;
24305;SDS011;12423;48.768;8.850;2023-02-28T10:52:50;9.73;;;6.53;;
24305;SDS011;12423;48.768;8.850;2023-02-28T10:54:51;11.30;;;6.55;;
24305;SDS011;12423;48.768;8.850;2023-02-28T10:57:23;11.20;;;6.38;;
24305;SDS011;12423;48.768;8.850;2023-02-28T10:59:29;11.05;;;6.85;;
24305;SDS011;12423;48.768;8.850;2023-02-28T11:01:35;16.33;;;7.45;;
24305;SDS011;12423;48.768;8.850;2023-02-28T11:03:36;15.95;;;7.50;;
24305;SDS011;12423;48.768;8.850;2023-02-28T11:05:37;15.25;;;7.40;;
24305;SDS011;12423;48.768;8.850;2023-02-28T11:07:38;12.15;;;6.80;;
24305;SDS011;12423;48.768;8.850;2023-02-28T11:09:39;15.80;;;8.40;;
24305;SDS011;12423;48.768;8.850;2023-02-28T11:11:45;12.88;;;7.43;;
24305;SDS011;12423;48.768;8.850;2023-02-28T11:13:47;14.00;;;7.57;;
24305;SDS011;12423;48.768;8.850;2023-02-28T11:15:53;12.65;;;7.22;;
24305;SDS011;12423;48.768;8.850;2023-02-28T11:18:00;18.63;;;8.25;;
24305;SDS011;12423;48.768;8.850;2023-02-28T11:22:23;13.45;;;7.40;;
24305;SDS011;12423;48.768;8.850;2023-02-28T11:24:30;17.00;;;6.95;;
24305;SDS011;12423;48.768;8.850;2023-02-28T11:26:40;11.02;;;6.32;;
24305;SDS011;12423;48.768;8.850;2023-02-28T11:28:47;11.10;;;6.57;;
24305;SDS011;12423;48.768;8.850;2023-02-28T11:30:49;12.48;;;6.65;;
24305;SDS011;12423;48.768;8.850;2023-02-28T11:35:31;15.70;;;6.70;;
24305;SDS011;12423;48.768;8.850;2023-02-28T11:37:37;10.95;;;6.70;;
24305;SDS011;12423;48.768;8.850;2023-02-28T11:39:39;10.75;;;6.70;;
24305;SDS011;12423;48.768;8.850;2023-02-28T11:46:36;12.00;;;6.65;;
24305;SDS011;12423;48.768;8.850;2023-02-28T11:49:03;9.18;;;5.78;;
24305;SDS011;12423;48.768;8.850;2023-02-28T11:51:35;8.77;;;5.75;;
24305;SDS011;12423;48.768;8.850;2023-02-28T11:58:47;10.50;;;6.63;;
24305;SDS011;12423;48.768;8.850;2023-02-28T12:01:14;14.18;;;6.50;;
24305;SDS011;12423;48.768;8.850;2023-02-28T12:03:22;11.52;;;6.60;;
24305;SDS011;12423;48.768;8.850;2023-02-28T12:05:32;9.68;;;6.00;;
24305;SDS011;12423;48.768;8.850;2023-02-28T12:07:50;10.85;;;6.95;;
24305;SDS011;12423;48.768;8.850;2023-02-28T12:10:05;11.07;;;6.72;;
24305;SDS011;12423;48.768;8.850;2023-02-28T12:12:17;16.42;;;10.73;;
24305;SDS011;12423;48.768;8.850;2023-02-28T12:19:45;9.45;;;6.70;;
24305;SDS011;12423;48.768;8.850;2023-02-28T12:22:03;12.38;;;8.45;;
24305;SDS011;12423;48.768;8.850;2023-02-28T12:24:39;11.30;;;7.93;;
24305;SDS011;12423;48.768;8.850;2023-02-28T12:26:38;11.70;;;6.90;;
24305;SDS011;12423;48.768;8.850;2023-02-28T12:28:46;12.00;;;7.63;;
24305;SDS011;12423;48.768;8.850;2023-02-28T12:31:01;9.45;;;7.05;;
24305;SDS011;12423;48.768;8.850;2023-02-28T12:33:11;11.27;;;7.03;;
24305;SDS011;12423;48.768;8.850;2023-02-28T12:35:26;9.40;;;6.88;;
24305;SDS011;12423;48.768;8.850;2023-02-28T12:37:36;13.20;;;7.80;;
24305;SDS011;12423;48.768;8.850;2023-02-28T12:39:44;12.65;;;7.25;;
24305;SDS011;12423;48.768;8.850;2023-02-28T12:41:54;13.32;;;7.68;;
24305;SDS011;12423;48.768;8.850;2023-02-28T12:44:10;12.20;;;7.65;;
24305;SDS011;12423;48.768;8.850;2023-02-28T12:46:28;11.02;;;7.30;;
24305;SDS011;12423;48.768;8.850;2023-02-28T12:48:39;11.35;;;7.55;;
24305;SDS011;12423;48.768;8.850;2023-02-28T12:50:43;10.75;;;6.80;;
24305;SDS011;12423;48.768;8.850;2023-02-28T12:55:17;10.88;;;7.35;;
24305;SDS011;12423;48.768;8.850;2023-02-28T12:57:36;11.55;;;6.57;;
24305;SDS011;12423;48.768;8.850;2023-02-28T13:02:00;10.25;;;6.43;;
24305;SDS011;12423;48.768;8.850;2023-02-28T13:09:12;10.88;;;6.95;;
24305;SDS011;12423;48.768;8.850;2023-02-28T13:11:26;9.93;;;6.25;;
24305;SDS011;12423;48.768;8.850;2023-02-28T13:13:31;11.95;;;7.10;;
24305;SDS011;12423;48.768;8.850;2023-02-28T13:15:32;8.95;;;6.07;;
24305;SDS011;12423;48.768;8.850;2023-02-28T13:17:39;16.50;;;6.38;;
24305;SDS011;12423;48.768;8.850;2023-02-28T13:19:45;9.57;;;5.88;;
24305;SDS011;12423;48.768;8.850;2023-02-28T13:22:16;10.45;;;6.20;;
24305;SDS011;12423;48.768;8.850;2023-02-28T13:24:38;10.48;;;6.30;;
24305;SDS011;12423;48.768;8.850;2023-02-28T13:35:37;11.50;;;7.30;;
24305;SDS011;12423;48.768;8.850;2023-02-28T13:37:43;10.68;;;5.93;;
24305;SDS011;12423;48.768;8.850;2023-02-28T13:39:56;8.52;;;6.03;;
24305;SDS011;12423;48.768;8.850;2023-02-28T13:42:23;9.57;;;5.55;;
24305;SDS011;12423;48.768;8.850;2023-02-28T13:45:19;8.95;;;6.03;;
24305;SDS011;12423;48.768;8.850;2023-02-28T13:49:40;10.70;;;6.85;;
24305;SDS011;12423;48.768;8.850;2023-02-28T13:54:01;9.05;;;6.07;;
24305;SDS011;12423;48.768;8.850;2023-02-28T13:56:19;9.63;;;6.70;;
24305;SDS011;12423;48.768;8.850;2023-02-28T13:58:52;13.95;;;6.68;;